Latest Weather Observations for West Wyalong

IDN60801

Issued at 12:42 pm EDT Sunday 18 November 2018 (issued every 10 minutes, with the page automatically refreshed every 10 minutes)

About weather observations | Map of weather stations | Latest weather observations for NSW | Other Formats
Station Details ID: 050017 Name: WEST WYALONG AIRPORT AWS Lat: -33.94 Lon: 147.20 Height: 257.0 m
Data from the previous 72 hours. | See also: Recent months at West Wyalong
Date/Time
EDT
Temp
°C
App
Temp
°C
Dew
Point
°C
Rel
Hum
%
Delta-T
°C
Wind Press
QNH
hPa
Press
MSL
hPa
Rain since
9am
mm
Dir  Spd
km/h
Gust
km/h
Spd
kts
Gust
kts
18/12:30pm 25.0 20.2 5.7 29 10.0 NE 20 30 11 16 1019.9 1019.0 0.0
18/12:00pm 24.2 20.6 6.9 33 9.1 NE 15 28 8 15 1020.3 1019.4 0.0
18/11:30am 23.2 19.2 6.5 34 8.7 NE 17 32 9 17 1020.9 1020.0 0.0
18/11:00am 22.6 18.3 6.8 36 8.2 NE 19 28 10 15 1021.3 1020.3 0.0
18/10:30am 21.4 16.9 6.9 39 7.5 NE 20 28 11 15 1021.5 1020.6 0.0
18/10:00am 21.1 16.5 6.6 39 7.4 ENE 20 28 11 15 1021.6 1020.7 0.0
18/09:30am 20.2 15.4 7.2 43 6.7 E 22 32 12 17 1021.6 1020.7 0.0
18/09:00am 19.7 14.9 7.4 45 6.3 ENE 22 30 12 16 1021.7 1020.8 0.0
18/08:30am 18.4 13.2 7.2 48 5.7 E 24 37 13 20 1021.6 1020.7 0.0
18/08:00am 17.5 12.7 7.5 52 5.1 E 22 32 12 17 1021.4 1020.4 0.0
18/07:30am 16.3 11.4 8.3 59 4.1 E 24 35 13 19 1021.2 1020.2 0.0
18/07:00am 15.9 11.0 8.4 61 3.8 E 24 37 13 20 1021.0 1020.1 0.0
18/06:30am 15.2 11.1 7.7 61 3.8 ESE 19 24 10 13 1020.7 1019.8 0.0
18/06:00am 15.4 11.1 7.9 61 3.8 E 20 30 11 16 1020.5 1019.6 0.0
18/05:30am 15.5 10.9 8.0 61 3.8 E 22 30 12 16 1020.2 1019.3 0.0
18/05:00am 15.4 11.2 8.2 62 3.7 E 20 28 11 15 1020.1 1019.2 0.0
18/04:30am 15.6 10.7 8.4 62 3.7 E 24 33 13 18 1019.9 1019.0 0.0
18/04:00am 15.7 11.0 7.7 59 4.0 E 22 30 12 16 1019.8 1018.9 0.0
18/03:30am 16.2 11.9 7.9 58 4.2 E 20 28 11 15 1019.7 1018.8 0.0
18/03:00am 16.4 11.4 8.1 58 4.2 E 24 33 13 18 1019.6 1018.7 0.0
18/02:30am 16.4 11.8 8.1 58 4.3 ESE 22 28 12 15 1019.7 1018.8 0.0
18/02:00am 16.8 12.5 8.0 56 4.5 E 20 28 11 15 1019.9 1019.0 0.0
18/01:30am 17.3 12.3 8.2 55 4.7 E 24 32 13 17 1019.8 1018.9 0.0
18/01:00am 17.7 12.8 8.3 54 4.9 E 24 32 13 17 1019.8 1018.9 0.0
18/12:30am 18.2 13.3 8.5 53 5.1 E 24 33 13 18 1019.8 1018.9 0.0
18/12:00am 18.8 13.5 8.5 51 5.4 E 26 41 14 22 1019.7 1018.8 0.0
 
Date/Time
EDT
Temp
°C
App
Temp
°C
Dew
Point
°C
Rel
Hum
%
Delta-T
°C
Wind Press
QNH
hPa
Press
MSL
hPa
Rain since
9am
mm
Dir  Spd
km/h
Gust
km/h
Spd
kts
Gust
kts
17/11:30pm 19.1 14.2 8.4 50 5.6 E 24 37 13 20 1019.3 1018.4 0.0
17/11:00pm 19.7 14.4 8.4 48 5.9 E 26 39 14 21 1019.2 1018.3 0.0
17/10:38pm 20.3 14.3 8.6 47 6.2 E 30 48 16 26 1018.9 1018.0 0.0
17/10:30pm 20.5 14.1 8.5 46 6.4 E 32 48 17 26 1018.8 1017.9 0.0
17/10:00pm 21.5 15.0 9.1 45 6.7 ESE 33 44 18 24 1018.4 1017.5 0.0
17/09:30pm 22.8 16.6 7.8 38 8.0 ESE 30 39 16 21 1017.8 1016.8 0.0
17/09:16pm 23.5 17.4 6.7 34 8.8 E 28 44 15 24 1017.5 1016.5 0.0
17/09:00pm 24.1 19.3 5.5 30 9.5 ESE 20 26 11 14 1017.1 1016.1 0.0
17/08:30pm 24.7 19.7 4.5 27 10.2 ESE 20 28 11 15 1016.7 1015.8 0.0
17/08:00pm 25.3 20.7 3.9 25 10.7 ESE 17 24 9 13 1016.4 1015.5 0.0
17/07:30pm 26.3 21.7 3.5 23 11.4 ESE 17 20 9 11 1016.0 1015.1 0.0
17/07:00pm 26.7 22.4 3.2 22 11.7 SE 15 24 8 13 1015.7 1014.8 0.0
17/06:30pm 27.0 21.8 3.5 22 11.8 ESE 20 26 11 14 1015.5 1014.6 0.0
17/06:00pm 28.8 23.5 2.9 19 13.0 ESE 20 28 11 15 1015.3 1014.4 0.0
17/05:30pm 29.1 24.1 -1.1 14 14.2 S 15 22 8 12 1015.3 1014.4 0.0
17/05:00pm 28.5 24.5 -2.6 13 14.2 W 9 17 5 9 1015.3 1014.4 0.0
17/04:30pm 28.2 23.4 -2.8 13 14.1 SSE 13 20 7 11 1015.5 1014.6 0.0
17/04:00pm 28.1 24.3 -0.9 15 13.6 SSE 9 20 5 11 1015.6 1014.7 0.0
17/03:30pm 27.8 22.9 -3.1 13 13.9 ESE 13 22 7 12 1015.8 1014.9 0.0
17/03:00pm 28.2 23.0 -2.8 13 14.1 S 15 20 8 11 1016.2 1015.3 0.0
17/02:30pm 28.1 23.0 -1.9 14 13.8 S 15 26 8 14 1016.5 1015.6 0.0
17/02:00pm 27.4 23.6 -0.6 16 13.1 SE 9 20 5 11 1016.8 1015.9 0.0
17/01:30pm 27.4 23.1 -1.5 15 13.3 SSE 11 19 6 10 1017.2 1016.2 0.0
17/01:00pm 26.2 20.2 -1.6 16 12.7 S 20 30 11 16 1017.5 1016.5 0.0
17/12:30pm 26.6 22.4 1.8 20 12.1 SSW 13 19 7 10 1017.7 1016.7 0.0
17/12:00pm 25.8 21.5 1.2 20 11.8 ESE 13 22 7 12 1018.1 1017.2 0.0
17/11:30am 25.0 21.0 3.0 24 10.8 SW 13 22 7 12 1018.4 1017.5 0.0
17/11:00am 24.5 20.9 3.2 25 10.5 S 11 22 6 12 1018.6 1017.7 0.0
17/10:30am 23.6 20.5 7.3 35 8.6 ESE 13 19 7 10 1018.5 1017.6 0.0
17/10:00am 23.0 20.5 9.8 43 7.2 ESE 13 19 7 10 1018.5 1017.6 0.0
17/09:30am 21.1 18.8 10.6 51 5.8 SSE 13 19 7 10 1018.6 1017.7 0.0
17/09:00am 20.3 18.5 11.0 55 5.1 SE 11 19 6 10 1018.5 1017.6 0.0
17/08:30am 18.7 16.4 10.5 59 4.5 ESE 13 17 7 9 1018.4 1017.5 0.0
17/08:00am 17.8 15.2 9.4 58 4.4 SE 13 17 7 9 1018.2 1017.3 0.0
17/07:30am 16.8 13.8 7.7 55 4.6 SE 13 17 7 9 1017.9 1016.9 0.0
17/07:00am 15.7 13.2 4.7 48 5.2 SSE 7 9 4 5 1017.6 1016.6 0.0
17/06:30am 13.7 11.0 3.5 50 4.7 S 7 7 4 4 1017.3 1016.3 0.0
17/06:00am 12.5 10.8 2.1 49 4.6 CALM 0 0 0 0 1017.1 1016.1 0.0
17/05:30am 13.6 12.0 2.2 46 5.1 CALM 0 7 0 4 1016.7 1015.8 0.0
17/05:00am 15.1 11.5 0.9 38 6.2 SW 9 11 5 6 1016.2 1015.3 0.0
17/04:30am 15.4 11.4 0.8 37 6.4 WSW 11 13 6 7 1016.1 1015.2 0.0
17/04:00am 13.5 10.5 1.8 45 5.1 WSW 7 9 4 5 1016.0 1015.1 0.0
17/03:30am 15.8 12.8 0.8 36 6.6 SW 6 7 3 4 1015.9 1015.0 0.0
17/03:00am 16.7 12.7 0.8 34 7.0 WSW 11 13 6 7 1015.9 1015.0 0.0
17/02:30am 16.1 12.0 2.2 39 6.3 WSW 13 15 7 8 1016.0 1015.1 0.0
17/02:00am 16.3 12.6 2.3 39 6.4 WSW 11 13 6 7 1016.2 1015.3 0.0
17/01:30am 16.5 12.5 2.9 40 6.3 WSW 13 15 7 8 1016.6 1015.7 0.0
17/01:00am 16.2 12.5 2.6 40 6.2 WSW 11 13 6 7 1016.8 1015.9 0.0
17/12:30am 16.4 13.0 2.1 38 6.5 WSW 9 11 5 6 1017.1 1016.1 0.0
17/12:00am 17.1 14.0 1.5 35 7.0 WSW 7 9 4 5 1017.3 1016.3 0.0
 
Date/Time
EDT
Temp
°C
App
Temp
°C
Dew
Point
°C
Rel
Hum
%
Delta-T
°C
Wind Press
QNH
hPa
Press
MSL
hPa
Rain since
9am
mm
Dir  Spd
km/h
Gust
km/h
Spd
kts
Gust
kts
16/11:30pm 18.4 14.9 1.0 31 7.8 WSW 9 13 5 7 1017.5 1016.5 0.0
16/11:00pm 19.2 15.3 1.2 30 8.2 WSW 11 13 6 7 1017.7 1016.7 0.0
16/10:30pm 20.0 16.0 0.5 27 8.8 WSW 11 13 6 7 1017.7 1016.7 0.0
16/10:00pm 20.7 16.7 0.5 26 9.2 WSW 11 15 6 8 1017.5 1016.5 0.0
16/09:30pm 21.2 17.0 -0.7 23 9.8 WSW 11 13 6 7 1017.1 1016.1 0.0
16/09:00pm 21.8 17.7 -0.2 23 9.9 SW 11 13 6 7 1016.5 1015.6 0.0
16/08:30pm 23.3 19.1 -0.9 20 10.9 SSW 11 17 6 9 1016.3 1015.4 0.0
16/08:00pm 24.4 18.9 -2.2 17 11.8 SW 17 22 9 12 1016.0 1015.1 0.0
16/07:30pm 25.7 20.0 -3.8 14 12.9 SSW 17 22 9 12 1015.7 1014.8 0.0
16/07:00pm 26.5 20.1 -5.2 12 13.6 SW 20 26 11 14 1015.5 1014.6 0.0
16/06:30pm 27.1 20.5 -7.1 10 14.2 SW 20 28 11 15 1015.4 1014.5 0.0
16/06:00pm 27.5 20.2 -6.8 10 14.4 WSW 24 30 13 16 1015.4 1014.5 0.0
16/05:30pm 28.2 21.9 -6.3 10 14.7 SW 19 30 10 16 1015.3 1014.4 0.0
16/05:00pm 27.8 22.2 -3.1 13 13.9 WSW 17 28 9 15 1015.5 1014.6 0.0
16/04:30pm 28.5 22.2 -6.0 10 14.8 SW 19 32 10 17 1015.6 1014.7 0.0
16/04:00pm 27.8 21.9 -5.3 11 14.3 WSW 17 26 9 14 1015.9 1015.0 0.0
16/03:30pm 27.4 22.7 -1.5 15 13.3 W 13 26 7 14 1016.2 1015.3 0.0
16/03:00pm 27.6 22.3 -0.5 16 13.2 SSW 17 24 9 13 1016.4 1015.5 0.0
16/02:30pm 26.9 23.0 1.3 19 12.4 SSW 11 17 6 9 1016.8 1015.9 0.0
16/02:00pm 27.1 21.5 0.0 17 12.8 SW 19 33 10 18 1017.4 1016.4 0.0
16/01:30pm 25.5 22.0 3.5 24 11.0 ESE 11 20 6 11 1017.7 1016.7 0.0
16/01:00pm 24.7 21.4 4.5 27 10.2 SSW 11 24 6 13 1018.3 1017.4 0.0
16/12:30pm 24.6 21.4 3.3 25 10.5 NNW 9 19 5 10 1018.6 1017.7 0.0
16/12:00pm 24.7 22.5 6.0 30 9.7 N 7 15 4 8 1019.1 1018.2 0.0
16/11:30am 23.8 20.5 6.6 33 9.0 S 13 17 7 9 1019.3 1018.4 0.0
16/11:00am 22.5 20.7 7.9 39 7.7 NNW 7 11 4 6 1019.6 1018.7 0.0
16/10:30am 21.7 21.0 10.2 48 6.3 NE 4 9 2 5 1019.8 1018.9 0.0
16/10:00am 20.1 18.9 10.2 53 5.4 N 7 15 4 8 1019.8 1018.9 0.0
16/09:30am 19.6 17.6 10.0 54 5.2 ENE 11 15 6 8 1019.8 1018.9 0.0
16/09:00am 18.2 15.3 9.8 58 4.5 ENE 15 20 8 11 1020.0 1019.1 0.0
16/08:30am 17.0 14.1 9.7 62 3.9 E 15 20 8 11 1019.9 1019.0 0.0
16/08:00am 16.3 13.0 9.5 64 3.6 E 17 20 9 11 1019.8 1018.9 0.0
16/07:30am 15.4 12.5 9.5 68 3.1 ESE 15 20 8 11 1019.7 1018.8 0.0
16/07:00am 14.4 11.9 9.8 74 2.4 ESE 13 17 7 9 1019.6 1018.7 0.0
16/06:30am 13.2 11.1 9.8 80 1.8 ESE 11 15 6 8 1019.4 1018.5 0.0
16/06:00am 12.4 10.3 9.6 83 1.4 ESE 11 13 6 7 1019.2 1018.3 0.0
16/05:30am 12.7 10.6 9.7 82 1.6 ESE 11 13 6 7 1019.0 1018.1 0.0
16/05:00am 13.0 10.9 9.6 80 1.8 ESE 11 15 6 8 1018.9 1018.0 0.0
16/04:30am 13.1 11.4 9.7 80 1.8 ESE 9 13 5 7 1018.9 1018.0 0.0
16/04:00am 13.5 11.1 9.9 79 1.9 ESE 13 15 7 8 1019.0 1018.1 0.0
16/03:30am 13.8 11.8 10.0 78 2.0 SE 11 15 6 8 1019.2 1018.3 0.0
16/03:00am 14.0 12.0 10.0 77 2.1 SE 11 13 6 7 1019.4 1018.5 0.0
16/02:30am 14.4 11.7 10.2 76 2.2 SE 15 17 8 9 1019.7 1018.8 0.0
16/02:00am 14.9 11.8 10.3 74 2.4 SE 17 20 9 11 1019.9 1019.0 0.0
16/01:30am 15.4 12.4 10.6 73 2.6 SE 17 20 9 11 1020.2 1019.3 0.0
16/01:00am 16.2 13.1 10.3 68 3.1 SE 17 22 9 12 1020.3 1019.4 0.0
16/12:30am 17.5 12.5 3.4 39 6.6 SSE 19 24 10 13 1020.4 1019.5 0.0
16/12:00am 18.4 13.2 2.7 35 7.3 S 19 24 10 13 1020.2 1019.3 0.0
 
Date/Time
EDT
Temp
°C
App
Temp
°C
Dew
Point
°C
Rel
Hum
%
Delta-T
°C
Wind Press
QNH
hPa
Press
MSL
hPa
Rain since
9am
mm
Dir  Spd
km/h
Gust
km/h
Spd
kts
Gust
kts
15/11:30pm 18.3 14.7 5.2 42 6.4 SSW 13 19 7 10 1020.2 1019.3 0.0
15/11:00pm 18.3 15.6 5.8 44 6.2 SW 9 11 5 6 1020.0 1019.1 0.0
15/10:30pm 18.9 16.2 5.7 42 6.6 WSW 9 9 5 5 1019.8 1018.9 0.0
15/10:00pm 19.5 16.6 4.8 38 7.2 WSW 9 9 5 5 1019.8 1018.9 0.0
15/09:30pm 20.2 17.4 5.1 37 7.5 WSW 9 11 5 6 1019.6 1018.7 0.0
15/09:00pm 19.9 17.2 5.5 39 7.2 WSW 9 11 5 6 1019.1 1018.2 0.0
15/08:30pm 21.7 18.7 4.3 32 8.6 SSW 9 13 5 7 1018.9 1018.0 0.0
15/08:00pm 23.2 18.9 3.2 27 9.7 SW 15 20 8 11 1018.8 1017.9 0.0
15/07:30pm 24.5 19.6 2.0 23 10.8 SW 17 24 9 13 1018.5 1017.6 0.0
15/07:00pm 25.2 19.6 1.3 21 11.4 SW 20 26 11 14 1018.1 1017.2 0.0
15/06:30pm 25.7 20.2 1.8 21 11.6 SSW 20 30 11 16 1017.8 1016.8 0.0
15/06:00pm 26.6 20.3 1.8 20 12.1 SW 24 30 13 16 1017.6 1016.6 0.0
15/05:30pm 26.8 21.4 2.7 21 11.9 WSW 20 30 11 16 1017.6 1016.6 0.0
15/05:00pm 26.4 20.8 3.6 23 11.4 WSW 22 41 12 22 1017.6 1016.6 0.0
15/04:30pm 26.7 21.0 5.1 25 11.2 WSW 24 35 13 19 1017.8 1016.8 0.0
15/04:00pm 26.9 21.3 5.2 25 11.2 WSW 24 41 13 22 1017.8 1016.8 0.0
15/03:30pm 27.0 21.1 7.5 29 10.5 SW 28 39 15 21 1018.0 1017.0 0.0
15/03:00pm 26.4 20.4 6.9 29 10.4 WSW 28 41 15 22 1018.3 1017.4 0.0
15/02:30pm 26.5 21.4 7.5 30 10.2 WSW 24 39 13 21 1018.6 1017.7 0.0
15/02:00pm 26.4 21.5 8.4 32 9.8 W 24 41 13 22 1018.8 1017.9 0.0
15/01:30pm 26.3 21.4 8.3 32 9.8 SW 24 32 13 17 1019.0 1018.1 0.0
15/01:00pm 26.3 21.5 8.8 33 9.6 SW 24 33 13 18 1019.1 1018.2 0.0

Other Formats:

Comma delimited format used in spreadsheet applications
http://www.bom.gov.au/fwo/IDN60801/IDN60801.95709.axf

JavaScript Object Notation format (JSON) in row-major order
http://www.bom.gov.au/fwo/IDN60801/IDN60801.95709.json